createdAt,value
2018-05-24T00:01:47.184Z,14.2
2018-05-24T00:02:46.937Z,14.2
2018-05-24T00:03:47.432Z,14.2
2018-05-24T00:04:46.964Z,14.2
2018-05-24T00:05:46.888Z,14.1
2018-05-24T00:06:47.242Z,14.1
2018-05-24T00:07:47.364Z,14.1
2018-05-24T00:08:46.877Z,14.1
2018-05-24T00:10:47.290Z,14.0
2018-05-24T00:13:19.385Z,14.0
2018-05-24T00:14:53.888Z,14.0
2018-05-24T00:16:03.769Z,14.0
2018-05-24T00:16:45.508Z,14.0
2018-05-24T00:19:32.207Z,14.0
2018-05-24T00:20:49.883Z,14.0
2018-05-24T00:21:26.123Z,14.0
2018-05-24T00:22:11.809Z,14.0
2018-05-24T00:23:11.369Z,14.0
2018-05-24T00:24:12.779Z,13.9
2018-05-24T00:25:12.194Z,13.9
2018-05-24T00:26:22.509Z,13.9
2018-05-24T00:27:11.939Z,13.9
2018-05-24T00:28:20.835Z,13.9
2018-05-24T00:29:20.576Z,13.8
2018-05-24T00:30:11.451Z,13.8
2018-05-24T00:31:13.438Z,13.8
2018-05-24T00:32:30.188Z,13.8
2018-05-24T00:33:17.722Z,13.8
2018-05-24T00:34:12.867Z,13.8
2018-05-24T00:35:13.041Z,13.8
2018-05-24T00:36:22.926Z,13.9
2018-05-24T00:37:13.298Z,13.9
2018-05-24T00:38:29.983Z,13.9
2018-05-24T00:39:28.002Z,13.9
2018-05-24T00:40:21.173Z,13.9
2018-05-24T00:41:12.300Z,13.9
2018-05-24T00:42:12.876Z,13.9
2018-05-24T00:43:12.174Z,13.9
2018-05-24T00:44:14.180Z,13.9
2018-05-24T00:45:12.141Z,13.9
2018-05-24T00:46:11.566Z,13.9
2018-05-24T00:47:14.285Z,14.0
2018-05-24T00:48:12.327Z,14.0
2018-05-24T00:49:11.620Z,14.0
2018-05-24T00:50:13.250Z,14.0
2018-05-24T00:51:12.265Z,14.0
2018-05-24T00:52:11.533Z,14.0
2018-05-24T00:53:11.836Z,14.0
2018-05-24T00:55:14.297Z,14.0
2018-05-24T00:56:16.368Z,14.0
2018-05-24T00:57:14.013Z,14.0
2018-05-24T00:58:17.203Z,14.0
2018-05-24T00:59:11.558Z,14.0
2018-05-24T01:00:12.160Z,14.0
2018-05-24T01:01:11.800Z,14.0
2018-05-24T01:02:11.548Z,14.0
2018-05-24T01:03:11.524Z,14.0
2018-05-24T01:04:12.257Z,13.9
2018-05-24T01:05:12.382Z,13.9
2018-05-24T01:06:14.206Z,13.9
2018-05-24T01:07:24.237Z,13.9
2018-05-24T01:08:26.024Z,13.9
2018-05-24T01:09:19.915Z,13.8
2018-05-24T01:10:20.522Z,13.8
2018-05-24T01:11:23.663Z,13.8
2018-05-24T01:13:12.662Z,13.7
2018-05-24T01:14:12.633Z,13.7
2018-05-24T01:15:15.985Z,13.7
2018-05-24T01:16:30.733Z,13.7
2018-05-24T01:18:20.376Z,13.8
2018-05-24T01:19:15.286Z,13.8
2018-05-24T01:21:16.075Z,13.8
2018-05-24T01:22:15.834Z,13.8
2018-05-24T01:23:28.163Z,13.8
2018-05-24T01:24:21.071Z,13.8
2018-05-24T01:25:17.156Z,13.8
2018-05-24T01:26:29.014Z,13.8
2018-05-24T01:27:14.189Z,13.7
2018-05-24T01:28:17.843Z,13.7
2018-05-24T01:29:13.817Z,13.7
2018-05-24T01:30:11.656Z,13.7
2018-05-24T01:31:15.441Z,13.7
2018-05-24T01:32:17.556Z,13.7
2018-05-24T01:33:12.302Z,13.7
2018-05-24T01:34:12.632Z,13.7
2018-05-24T01:35:12.940Z,13.7
2018-05-24T01:36:11.513Z,13.7
2018-05-24T01:37:11.824Z,13.8
2018-05-24T01:38:11.865Z,13.8
2018-05-24T01:39:11.766Z,13.8
2018-05-24T01:40:11.423Z,13.7
2018-05-24T01:41:11.505Z,13.7
2018-05-24T01:42:12.535Z,13.7
2018-05-24T01:43:11.522Z,13.7
2018-05-24T01:44:11.354Z,13.7
2018-05-24T01:45:11.741Z,13.7
2018-05-24T01:46:11.781Z,13.7
2018-05-24T01:47:11.464Z,13.7
2018-05-24T01:48:11.588Z,13.7
2018-05-24T01:49:11.773Z,13.7
2018-05-24T01:50:11.472Z,13.7
2018-05-24T01:51:11.779Z,13.7
2018-05-24T01:52:11.982Z,13.7
2018-05-24T01:53:11.494Z,13.7
2018-05-24T01:54:19.557Z,13.7
2018-05-24T01:55:16.559Z,13.6
2018-05-24T01:56:17.316Z,13.6
2018-05-24T01:57:27.066Z,13.6
2018-05-24T01:58:29.001Z,13.6
2018-05-24T01:59:11.773Z,13.6
2018-05-24T02:00:11.585Z,13.6
2018-05-24T02:01:11.670Z,13.6
2018-05-24T02:02:11.567Z,13.6
2018-05-24T02:03:12.499Z,13.7
2018-05-24T02:04:13.030Z,13.7
2018-05-24T02:05:13.747Z,13.7
2018-05-24T02:06:14.644Z,13.7
2018-05-24T02:07:17.833Z,13.7
2018-05-24T02:08:14.521Z,13.7
2018-05-24T02:09:14.700Z,13.7
2018-05-24T02:10:18.511Z,13.8
2018-05-24T02:13:21.058Z,13.8
2018-05-24T02:14:12.017Z,13.8
2018-05-24T02:15:11.851Z,13.8
2018-05-24T02:16:11.914Z,13.8
2018-05-24T02:17:11.874Z,13.8
2018-05-24T02:18:13.034Z,14.0
2018-05-24T02:20:18.497Z,14.0
2018-05-24T02:22:15.079Z,14.0
2018-05-24T02:23:13.890Z,14.0
2018-05-24T02:24:11.899Z,14.0
2018-05-24T02:25:12.494Z,14.0
2018-05-24T02:26:12.232Z,13.9
2018-05-24T02:28:12.244Z,13.9
2018-05-24T02:29:12.051Z,13.9
2018-05-24T02:31:12.176Z,13.8
2018-05-24T02:32:11.953Z,13.8
2018-05-24T02:33:12.121Z,13.8
2018-05-24T02:34:12.046Z,13.8
2018-05-24T02:35:12.345Z,13.8
2018-05-24T02:36:12.554Z,13.7
2018-05-24T02:38:15.662Z,13.8
2018-05-24T02:39:12.558Z,13.8
2018-05-24T02:40:12.502Z,13.8
2018-05-24T02:41:12.204Z,13.7
2018-05-24T02:42:11.906Z,13.7
2018-05-24T02:43:11.934Z,13.7
2018-05-24T02:44:11.834Z,13.7
2018-05-24T02:45:12.089Z,13.7
2018-05-24T02:46:11.921Z,13.7
2018-05-24T02:47:11.924Z,13.7
2018-05-24T02:48:12.219Z,13.7
2018-05-24T02:49:11.866Z,13.6
2018-05-24T02:50:11.839Z,13.6
2018-05-24T02:51:12.243Z,13.6
2018-05-24T02:52:11.960Z,13.6
2018-05-24T02:54:12.803Z,13.6
2018-05-24T02:55:12.742Z,13.6
2018-05-24T02:56:12.025Z,13.6
2018-05-24T02:57:11.846Z,13.6
2018-05-24T02:58:11.960Z,13.6
2018-05-24T02:59:11.651Z,13.6
2018-05-24T03:00:12.167Z,13.6
2018-05-24T03:01:11.982Z,13.7
2018-05-24T03:02:12.026Z,13.7
2018-05-24T03:03:12.114Z,13.7
2018-05-24T03:04:12.039Z,13.8
2018-05-24T03:05:12.175Z,13.8
2018-05-24T03:07:05.328Z,13.8
2018-05-24T03:07:13.540Z,13.8
2018-05-24T03:08:13.944Z,13.8
2018-05-24T03:09:13.474Z,13.7
2018-05-24T03:10:12.924Z,13.7
2018-05-24T03:11:12.974Z,13.7
2018-05-24T03:12:13.211Z,13.7
2018-05-24T03:13:14.579Z,13.7
2018-05-24T03:14:13.874Z,13.7
2018-05-24T03:15:18.231Z,13.7
2018-05-24T03:16:18.497Z,13.7
2018-05-24T03:18:33.699Z,13.7
2018-05-24T03:20:29.287Z,13.7
2018-05-24T03:22:26.936Z,13.8
2018-05-24T03:23:30.437Z,13.8
2018-05-24T03:24:27.660Z,14.0
2018-05-24T03:26:28.027Z,14.0
2018-05-24T03:27:29.516Z,14.0
2018-05-24T03:28:29.953Z,14.0
2018-05-24T03:29:26.797Z,14.0
2018-05-24T03:30:31.008Z,14.0
2018-05-24T03:31:28.959Z,14.0
2018-05-24T03:32:30.316Z,14.1
2018-05-24T03:33:28.423Z,14.1
2018-05-24T03:35:28.374Z,14.2
2018-05-24T03:36:31.990Z,14.2
2018-05-24T03:37:29.649Z,14.1
2018-05-24T03:38:28.355Z,14.1
2018-05-24T03:39:28.046Z,14.2
2018-05-24T03:40:27.432Z,14.2
2018-05-24T03:41:26.428Z,14.2
2018-05-24T03:42:31.513Z,14.2
2018-05-24T03:43:26.772Z,14.2
2018-05-24T03:44:27.072Z,14.3
2018-05-24T03:45:36.396Z,14.3
2018-05-24T03:46:28.147Z,14.3
2018-05-24T03:47:27.813Z,14.3
2018-05-24T03:48:35.193Z,14.3
2018-05-24T03:49:26.619Z,14.3
2018-05-24T03:50:26.883Z,14.3
2018-05-24T03:51:25.743Z,14.3
2018-05-24T03:52:36.519Z,14.2
2018-05-24T03:53:37.634Z,14.2
2018-05-24T03:54:28.032Z,14.1
2018-05-24T03:55:31.842Z,14.1
2018-05-24T03:57:29.999Z,14.1
2018-05-24T03:58:27.084Z,14.1
2018-05-24T04:00:29.358Z,14.0
2018-05-24T04:01:29.188Z,14.0
2018-05-24T04:02:33.812Z,14.0
2018-05-24T04:03:28.272Z,14.0
2018-05-24T04:05:38.567Z,14.1
2018-05-24T04:06:30.788Z,14.1
2018-05-24T04:07:26.552Z,14.1
2018-05-24T04:08:29.938Z,14.1
2018-05-24T04:09:26.416Z,14.1
2018-05-24T04:10:28.075Z,14.2
2018-05-24T04:11:27.132Z,14.2
2018-05-24T04:12:27.907Z,14.2
2018-05-24T04:13:29.734Z,14.2
2018-05-24T04:14:27.272Z,14.2
2018-05-24T04:15:30.926Z,14.2
2018-05-24T04:16:27.984Z,14.2
2018-05-24T04:17:29.653Z,14.0
2018-05-24T04:18:27.488Z,14.0
2018-05-24T04:19:30.604Z,14.0
2018-05-24T04:22:32.580Z,14.0
2018-05-24T04:23:31.758Z,14.0
2018-05-24T04:24:29.404Z,14.0
2018-05-24T04:25:28.443Z,13.9
2018-05-24T04:26:26.847Z,13.9
2018-05-24T04:27:25.415Z,13.9
2018-05-24T04:28:25.372Z,13.9
2018-05-24T04:29:27.964Z,13.9
2018-05-24T04:30:33.579Z,13.8
2018-05-24T04:31:28.515Z,13.8
2018-05-24T04:32:27.704Z,13.8
2018-05-24T04:33:30.863Z,13.8
2018-05-24T04:34:28.534Z,13.8
2018-05-24T04:35:31.651Z,13.8
2018-05-24T04:36:25.345Z,13.8
2018-05-24T04:37:31.579Z,13.8
2018-05-24T04:38:28.297Z,13.8
2018-05-24T04:40:27.298Z,13.7
2018-05-24T04:41:27.501Z,13.7
2018-05-24T04:42:30.259Z,13.7
2018-05-24T04:45:27.727Z,13.7
2018-05-24T04:46:28.043Z,13.7
2018-05-24T04:47:27.254Z,13.7
2018-05-24T04:48:27.269Z,13.7
2018-05-24T04:50:29.013Z,13.7
2018-05-24T04:51:27.344Z,13.7
2018-05-24T04:52:28.483Z,13.7
2018-05-24T04:53:27.294Z,13.8
2018-05-24T04:54:26.560Z,13.8
2018-05-24T04:55:34.509Z,13.9
2018-05-24T04:56:26.493Z,13.9
2018-05-24T04:57:28.823Z,13.9
2018-05-24T04:59:27.217Z,13.9
2018-05-24T05:00:26.638Z,13.9
2018-05-24T05:01:28.720Z,14.0
2018-05-24T05:02:27.193Z,14.0
2018-05-24T05:03:31.904Z,14.0
2018-05-24T05:04:31.671Z,14.0
2018-05-24T05:05:28.828Z,14.0
2018-05-24T05:06:29.501Z,14.0
2018-05-24T05:07:27.742Z,14.0
2018-05-24T05:08:27.315Z,14.1
2018-05-24T05:09:30.998Z,14.1
2018-05-24T05:10:26.715Z,14.1
2018-05-24T05:11:30.608Z,14.2
2018-05-24T05:12:27.494Z,14.2
2018-05-24T05:14:26.067Z,14.3
2018-05-24T05:15:27.516Z,14.3
2018-05-24T05:16:28.256Z,14.3
2018-05-24T05:17:25.598Z,14.3
2018-05-24T05:24:30.630Z,14.4
2018-05-24T05:25:29.723Z,14.4
2018-05-24T05:26:24.412Z,14.4
2018-05-24T05:27:29.003Z,14.4
2018-05-24T05:28:32.524Z,14.4
2018-05-24T05:29:27.892Z,14.4
2018-05-24T05:30:27.979Z,14.4
2018-05-24T05:31:28.680Z,14.5
2018-05-24T05:32:29.616Z,14.5
2018-05-24T05:33:24.608Z,14.5
2018-05-24T05:34:25.715Z,14.5
2018-05-24T05:35:23.513Z,14.5
2018-05-24T05:36:24.535Z,14.5
2018-05-24T05:37:23.579Z,14.5
2018-05-24T05:38:24.508Z,14.5
2018-05-24T05:39:26.831Z,14.6
2018-05-24T05:40:23.531Z,14.6
2018-05-24T05:41:26.367Z,14.6
2018-05-24T05:42:42.295Z,14.6
2018-05-24T05:43:31.140Z,14.6
2018-05-24T05:44:26.368Z,14.6
2018-05-24T05:45:26.908Z,14.6
2018-05-24T05:46:28.660Z,14.7
2018-05-24T05:47:29.517Z,14.7
2018-05-24T05:48:24.729Z,14.7
2018-05-24T05:49:29.002Z,14.8
2018-05-24T05:50:25.528Z,14.8
2018-05-24T05:51:30.619Z,14.8
2018-05-24T05:53:24.438Z,14.8
2018-05-24T05:54:30.256Z,14.7
2018-05-24T05:55:25.501Z,14.7
2018-05-24T05:56:28.775Z,14.7
2018-05-24T05:57:29.114Z,14.7
2018-05-24T05:59:28.337Z,14.8
2018-05-24T06:00:31.926Z,14.8
2018-05-24T06:01:28.496Z,14.8
2018-05-24T06:03:27.695Z,14.8
2018-05-24T06:04:29.963Z,14.8
2018-05-24T06:06:27.626Z,14.8
2018-05-24T06:07:29.455Z,14.8
2018-05-24T06:08:34.721Z,14.8
2018-05-24T06:09:26.672Z,14.8
2018-05-24T06:10:26.108Z,14.8
2018-05-24T06:11:28.529Z,14.8
2018-05-24T06:12:30.081Z,15.0
2018-05-24T06:13:27.847Z,15.0
2018-05-24T06:14:25.863Z,15.1
2018-05-24T06:15:24.029Z,15.1
2018-05-24T06:16:29.036Z,15.1
2018-05-24T06:17:24.817Z,15.1
2018-05-24T06:18:24.529Z,15.1
2018-05-24T06:19:25.157Z,15.2
2018-05-24T06:20:26.032Z,15.2
2018-05-24T06:21:25.867Z,15.2
2018-05-24T06:22:24.617Z,15.3
2018-05-24T06:23:26.038Z,15.3
2018-05-24T06:24:23.898Z,15.3
2018-05-24T06:25:25.881Z,15.3
2018-05-24T06:26:26.017Z,15.3
2018-05-24T06:27:27.801Z,15.5
2018-05-24T06:28:33.354Z,15.5
2018-05-24T06:29:29.855Z,15.5
2018-05-24T06:30:28.228Z,15.6
2018-05-24T06:31:24.590Z,15.6
2018-05-24T06:32:30.386Z,15.5
2018-05-24T06:34:27.397Z,15.5
2018-05-24T06:35:26.328Z,16.0
2018-05-24T06:36:29.227Z,16.0
2018-05-24T06:37:24.692Z,16.5
2018-05-24T06:38:27.921Z,16.5
2018-05-24T06:39:47.268Z,16.5
2018-05-24T06:40:36.987Z,16.1
2018-05-24T06:41:27.539Z,16.1
2018-05-24T06:43:34.015Z,16.4
2018-05-24T06:45:43.975Z,16.4
2018-05-24T06:46:31.534Z,16.4
2018-05-24T06:47:39.193Z,16.8
2018-05-24T06:49:13.815Z,16.8
2018-05-24T06:50:39.118Z,16.8
2018-05-24T06:51:43.310Z,16.8
2018-05-24T06:52:20.836Z,16.8
2018-05-24T06:53:40.445Z,17.9
2018-05-24T06:54:27.059Z,17.9
2018-05-24T06:55:12.533Z,18.0
2018-05-24T06:56:13.559Z,18.0
2018-05-24T06:57:14.006Z,18.0
2018-05-24T06:58:06.019Z,18.6
2018-05-24T06:59:00.853Z,18.6
2018-05-24T07:00:16.219Z,18.6
2018-05-24T07:00:58.233Z,18.9
2018-05-24T07:02:04.318Z,18.9
2018-05-24T07:04:08.880Z,19.3
2018-05-24T07:05:11.015Z,19.3
2018-05-24T07:06:27.281Z,19.6
2018-05-24T07:07:17.991Z,19.6
2018-05-24T07:09:08.001Z,20.2
2018-05-24T07:10:00.767Z,20.2
2018-05-24T07:10:56.860Z,20.2
2018-05-24T07:11:55.371Z,20.2
2018-05-24T07:12:55.268Z,20.5
2018-05-24T07:13:55.909Z,20.5
2018-05-24T07:15:58.737Z,21.4
2018-05-24T07:16:55.956Z,21.4
2018-05-24T07:17:58.757Z,21.4
2018-05-24T07:18:56.721Z,21.4
2018-05-24T07:19:52.534Z,21.4
2018-05-24T07:20:56.719Z,20.0
2018-05-24T07:21:55.432Z,20.0
2018-05-24T07:22:58.562Z,20.4
2018-05-24T07:23:58.654Z,20.4
2018-05-24T07:25:57.937Z,20.5
2018-05-24T07:27:54.836Z,20.5
2018-05-24T07:31:57.295Z,20.4
2018-05-24T07:34:10.518Z,20.3
2018-05-24T07:36:05.442Z,19.8
2018-05-24T07:40:18.536Z,20.1
2018-05-24T07:41:19.345Z,19.7
2018-05-24T07:42:17.314Z,19.7
2018-05-24T07:43:18.949Z,19.7
2018-05-24T07:44:18.778Z,19.7
2018-05-24T07:45:20.872Z,19.7
2018-05-24T07:47:20.435Z,19.8
2018-05-24T07:48:18.363Z,19.2
2018-05-24T07:50:19.275Z,19.2
2018-05-24T07:51:24.599Z,19.7
2018-05-24T07:52:20.781Z,19.7
2018-05-24T07:53:22.870Z,19.7
2018-05-24T07:55:19.688Z,20.5
2018-05-24T07:56:18.730Z,20.5
2018-05-24T07:57:23.878Z,20.5
2018-05-24T07:58:17.680Z,20.5
2018-05-24T07:59:18.680Z,20.7
2018-05-24T08:01:19.865Z,20.1
2018-05-24T08:02:21.256Z,20.1
2018-05-24T08:03:20.714Z,20.1
2018-05-24T08:04:20.552Z,20.3
2018-05-24T08:05:19.065Z,20.3
2018-05-24T08:06:18.812Z,20.8
2018-05-24T08:07:21.086Z,20.8
2018-05-24T08:08:17.855Z,20.8
2018-05-24T08:09:17.841Z,20.4
2018-05-24T08:10:17.882Z,20.4
2018-05-24T08:11:17.790Z,20.4
2018-05-24T08:12:17.708Z,20.4
2018-05-24T08:13:17.760Z,20.4
2018-05-24T08:14:17.845Z,20.3
2018-05-24T08:16:10.228Z,20.3
2018-05-24T08:16:18.137Z,20.3
2018-05-24T08:17:18.859Z,20.1
2018-05-24T08:19:18.207Z,20.0
2018-05-24T08:20:17.878Z,20.0
2018-05-24T08:21:17.796Z,20.2
2018-05-24T08:22:17.891Z,20.2
2018-05-24T08:23:17.966Z,20.2
2018-05-24T08:24:17.882Z,20.3
2018-05-24T08:25:17.938Z,20.3
2018-05-24T08:26:20.219Z,20.3
2018-05-24T08:27:18.099Z,20.7
2018-05-24T08:28:17.670Z,20.7
2018-05-24T08:29:31.501Z,21.3
2018-05-24T08:30:25.149Z,21.3
2018-05-24T08:31:23.857Z,21.3
2018-05-24T08:32:24.031Z,21.2
2018-05-24T08:33:25.437Z,21.2
2018-05-24T08:34:27.120Z,21.0
2018-05-24T08:35:24.479Z,21.0
2018-05-24T08:36:38.550Z,21.0
2018-05-24T08:38:28.284Z,21.7
2018-05-24T08:39:28.847Z,21.4
2018-05-24T08:41:19.092Z,21.4
2018-05-24T08:42:18.200Z,21.3
2018-05-24T08:43:21.894Z,21.3
2018-05-24T08:44:19.791Z,21.2
2018-05-24T08:45:17.876Z,21.2
2018-05-24T08:46:19.786Z,21.2
2018-05-24T08:47:17.998Z,21.3
2018-05-24T08:48:18.717Z,21.3
2018-05-24T08:49:17.913Z,21.8
2018-05-24T08:50:18.223Z,21.8
2018-05-24T08:51:17.998Z,21.8
2018-05-24T08:52:17.795Z,21.8
2018-05-24T08:53:17.984Z,21.8
2018-05-24T08:54:17.797Z,21.8
2018-05-24T08:55:17.820Z,21.6
2018-05-24T08:56:18.895Z,21.6
2018-05-24T08:57:18.084Z,21.5
2018-05-24T08:58:18.517Z,21.5
2018-05-24T08:59:18.305Z,21.5
2018-05-24T09:00:17.884Z,22.6
2018-05-24T09:01:18.181Z,22.6
2018-05-24T09:02:17.848Z,21.9
2018-05-24T09:03:17.987Z,21.9
2018-05-24T09:04:17.860Z,21.9
2018-05-24T09:05:18.283Z,21.6
2018-05-24T09:09:36.517Z,21.6
2018-05-24T09:09:44.352Z,21.6
2018-05-24T09:10:44.316Z,22.8
2018-05-24T09:11:44.208Z,22.8
2018-05-24T09:12:44.933Z,22.5
2018-05-24T09:13:44.343Z,22.5
2018-05-24T09:14:44.795Z,22.6
2018-05-24T09:15:44.204Z,22.6
2018-05-24T09:16:44.341Z,22.6
2018-05-24T09:17:44.282Z,22.7
2018-05-24T09:18:45.027Z,22.7
2018-05-24T09:19:44.299Z,22.9
2018-05-24T09:20:44.305Z,22.9
2018-05-24T09:21:45.155Z,22.9
2018-05-24T09:22:44.848Z,23.1
2018-05-24T09:23:44.261Z,23.1
2018-05-24T09:24:44.247Z,23.1
2018-05-24T09:26:44.317Z,23.4
2018-05-24T09:27:44.309Z,23.5
2018-05-24T09:28:44.087Z,23.5
2018-05-24T09:29:44.607Z,23.5
2018-05-24T09:30:44.101Z,22.8
2018-05-24T09:31:44.156Z,22.8
2018-05-24T09:32:44.158Z,22.8
2018-05-24T09:33:44.491Z,22.8
2018-05-24T09:34:44.285Z,22.8
2018-05-24T09:35:44.527Z,22.6
2018-05-24T09:36:45.871Z,22.6
2018-05-24T09:37:44.546Z,23.1
2018-05-24T09:38:44.286Z,23.1
2018-05-24T09:39:44.437Z,23.1
2018-05-24T09:40:44.188Z,22.5
2018-05-24T09:41:44.486Z,22.5
2018-05-24T09:42:44.174Z,21.7
2018-05-24T09:43:44.163Z,21.7
2018-05-24T09:44:44.132Z,21.7
2018-05-24T09:45:44.146Z,21.7
2018-05-24T09:46:56.256Z,21.7
2018-05-24T09:47:44.289Z,22.2
2018-05-24T09:48:44.274Z,22.2
2018-05-24T09:49:44.192Z,22.2
2018-05-24T09:50:44.198Z,22.7
2018-05-24T09:51:44.789Z,22.7
2018-05-24T09:52:44.261Z,22.7
2018-05-24T09:53:44.522Z,22.4
2018-05-24T09:54:45.246Z,22.4
2018-05-24T09:55:44.496Z,22.4
2018-05-24T09:56:44.880Z,22.4
2018-05-24T09:57:44.228Z,22.4
2018-05-24T09:58:44.330Z,22.6
2018-05-24T10:00:44.180Z,22.4
2018-05-24T10:01:44.224Z,22.4
2018-05-24T10:02:44.214Z,22.4
2018-05-24T10:03:44.252Z,23.1
2018-05-24T10:04:44.789Z,23.1
2018-05-24T10:05:44.283Z,23.0
2018-05-24T10:06:44.280Z,23.0
2018-05-24T10:07:44.418Z,23.0
2018-05-24T10:08:45.065Z,23.7
2018-05-24T10:09:44.642Z,23.7
2018-05-24T10:10:44.405Z,24.7
2018-05-24T10:11:44.399Z,24.7
2018-05-24T10:12:44.419Z,24.7
2018-05-24T10:13:44.328Z,24.7
2018-05-24T10:14:44.302Z,24.7
2018-05-24T10:15:44.439Z,25.7
2018-05-24T10:16:44.852Z,25.7
2018-05-24T10:17:44.378Z,25.7
2018-05-24T10:18:44.415Z,25.8
2018-05-24T10:19:44.452Z,25.8
2018-05-24T10:20:44.233Z,26.5
2018-05-24T10:21:44.580Z,26.5
2018-05-24T10:22:44.730Z,26.5
2018-05-24T10:23:44.381Z,25.9
2018-05-24T10:24:44.298Z,25.9
2018-05-24T10:25:44.417Z,25.9
2018-05-24T10:26:44.756Z,26.3
2018-05-24T10:27:44.681Z,26.3
2018-05-24T10:28:44.400Z,26.4
2018-05-24T10:29:44.322Z,26.4
2018-05-24T10:30:44.393Z,26.4
2018-05-24T10:31:44.907Z,25.0
2018-05-24T10:32:44.334Z,25.0
2018-05-24T10:33:44.419Z,25.4
2018-05-24T10:34:44.189Z,25.4
2018-05-24T10:35:44.379Z,25.4
2018-05-24T10:36:44.339Z,25.6
2018-05-24T10:37:44.679Z,25.6
2018-05-24T10:38:44.931Z,24.6
2018-05-24T10:39:49.360Z,24.6
2018-05-24T10:42:00.531Z,25.6
2018-05-24T10:42:50.423Z,25.6
2018-05-24T10:43:52.118Z,26.4
2018-05-24T10:44:46.091Z,26.4
2018-05-24T10:45:51.578Z,26.4
2018-05-24T10:47:00.978Z,24.9
2018-05-24T10:47:52.229Z,24.9
2018-05-24T10:48:49.797Z,25.1
2018-05-24T10:49:54.821Z,25.1
2018-05-24T10:51:01.086Z,25.1
2018-05-24T10:51:55.715Z,24.4
2018-05-24T10:53:11.095Z,24.4
2018-05-24T10:54:50.642Z,24.4
2018-05-24T10:55:56.476Z,24.4
2018-05-24T10:56:49.857Z,25.2
2018-05-24T10:57:51.223Z,25.2
2018-05-24T11:00:02.347Z,25.5
2018-05-24T11:00:47.638Z,25.5
2018-05-24T11:01:49.577Z,26.0
2018-05-24T11:02:53.758Z,26.0
2018-05-24T11:03:46.639Z,26.0
2018-05-24T11:05:21.587Z,25.5
2018-05-24T11:06:49.375Z,25.0
2018-05-24T11:07:54.252Z,25.0
2018-05-24T11:08:48.756Z,25.0
2018-05-24T11:09:50.147Z,25.4
2018-05-24T11:21:44.299Z,24.4
2018-05-24T11:22:44.408Z,24.4
2018-05-24T11:23:57.947Z,24.4
2018-05-24T11:24:50.495Z,23.6
2018-05-24T11:25:52.532Z,23.6
2018-05-24T11:26:45.018Z,23.6
2018-05-24T11:27:44.088Z,23.5
2018-05-24T11:28:44.025Z,23.5
2018-05-24T11:29:44.370Z,23.6
2018-05-24T11:30:44.027Z,23.6
2018-05-24T11:31:44.996Z,23.6
2018-05-24T11:32:49.596Z,23.6
2018-05-24T11:33:46.950Z,23.6
2018-05-24T11:34:44.288Z,23.6
2018-05-24T11:35:50.817Z,23.6
2018-05-24T11:36:45.347Z,23.6
2018-05-24T11:37:45.670Z,22.6
2018-05-24T11:38:44.043Z,22.6
2018-05-24T11:39:44.336Z,22.8
2018-05-24T11:41:04.657Z,22.8
2018-05-24T11:41:50.295Z,22.8
2018-05-24T11:42:43.992Z,22.6
2018-05-24T11:43:44.055Z,22.6
2018-05-24T11:44:43.932Z,22.2
2018-05-24T11:45:44.182Z,22.2
2018-05-24T11:46:44.044Z,22.2
2018-05-24T11:47:43.840Z,22.4
2018-05-24T11:48:44.292Z,22.4
2018-05-24T11:49:44.523Z,22.0
2018-05-24T11:50:52.650Z,22.0
2018-05-24T11:51:49.227Z,22.0
2018-05-24T11:52:44.598Z,22.6
2018-05-24T11:53:44.463Z,22.6
2018-05-24T11:54:54.625Z,22.6
2018-05-24T11:55:47.904Z,23.1
2018-05-24T11:57:05.371Z,23.1
2018-05-24T11:57:44.867Z,22.8
2018-05-24T11:58:46.048Z,22.8
2018-05-24T12:00:07.564Z,22.8
2018-05-24T12:01:05.461Z,21.8
2018-05-24T12:01:53.179Z,21.8
2018-05-24T12:03:06.683Z,21.2
2018-05-24T12:04:30.334Z,21.2
2018-05-24T12:05:09.082Z,21.2
2018-05-24T12:06:47.745Z,21.1
2018-05-24T12:07:51.068Z,21.2
2018-05-24T12:09:55.210Z,21.2
2018-05-24T12:11:01.792Z,20.9
2018-05-24T12:11:53.000Z,20.9
2018-05-24T12:12:57.372Z,20.1
2018-05-24T12:13:52.718Z,20.1
2018-05-24T12:14:44.609Z,20.1
2018-05-24T12:15:48.178Z,20.1
2018-05-24T12:16:49.096Z,20.1
2018-05-24T12:17:59.501Z,19.7
2018-05-24T12:18:51.700Z,19.7
2018-05-24T12:19:50.496Z,19.7
2018-05-24T12:21:04.165Z,19.5
2018-05-24T12:22:10.870Z,19.5
2018-05-24T12:22:55.450Z,19.6
2018-05-24T12:23:49.617Z,19.6
2018-05-24T12:24:44.723Z,19.6
2018-05-24T12:26:25.023Z,19.0
2018-05-24T12:27:50.599Z,19.0
2018-05-24T12:29:04.067Z,18.4
2018-05-24T12:29:47.754Z,18.4
2018-05-24T12:30:50.006Z,18.2
2018-05-24T12:31:51.125Z,18.2
2018-05-24T12:32:45.841Z,18.2
2018-05-24T12:33:51.627Z,18.1
2018-05-24T12:34:51.776Z,18.1
2018-05-24T12:37:59.248Z,17.9
2018-05-24T12:38:49.881Z,17.7
2018-05-24T12:39:49.227Z,17.7
2018-05-24T12:40:46.241Z,17.5
2018-05-24T12:42:51.969Z,17.5
2018-05-24T12:43:48.841Z,17.5
2018-05-24T12:44:46.403Z,17.5
2018-05-24T12:45:50.802Z,17.4
2018-05-24T12:48:26.232Z,17.4
2018-05-24T12:50:21.849Z,17.2
2018-05-24T12:51:34.200Z,16.6
2018-05-24T12:52:14.503Z,16.6
2018-05-24T12:53:24.576Z,16.6
2018-05-24T12:54:27.936Z,16.3
2018-05-24T12:55:12.352Z,16.3
2018-05-24T12:56:03.103Z,16.3
2018-05-24T12:56:48.000Z,16.3
2018-05-24T12:57:47.477Z,16.3
2018-05-24T12:58:44.807Z,16.3
2018-05-24T12:59:44.684Z,16.3
2018-05-24T13:00:44.424Z,16.3
2018-05-24T13:01:44.891Z,16.0
2018-05-24T13:02:44.608Z,16.0
2018-05-24T13:03:44.420Z,16.0
2018-05-24T13:04:44.842Z,16.0
2018-05-24T13:05:44.746Z,16.0
2018-05-24T13:06:44.987Z,15.9
2018-05-24T13:07:44.520Z,15.9
2018-05-24T13:08:44.935Z,15.9
2018-05-24T13:09:44.587Z,15.9
2018-05-24T13:10:44.541Z,15.9
2018-05-24T13:11:44.768Z,16.0
2018-05-24T13:12:44.616Z,16.0
2018-05-24T13:14:04.913Z,16.1
2018-05-24T13:15:51.789Z,16.1
2018-05-24T13:16:48.030Z,16.2
2018-05-24T13:17:51.385Z,16.2
2018-05-24T13:18:44.189Z,16.4
2018-05-24T13:19:44.305Z,16.4
2018-05-24T13:20:44.211Z,16.4
2018-05-24T13:21:44.283Z,16.4
2018-05-24T13:22:44.735Z,16.4
2018-05-24T13:23:44.294Z,16.6
2018-05-24T13:24:44.919Z,16.6
2018-05-24T13:25:45.316Z,16.6
2018-05-24T13:27:28.739Z,16.6
2018-05-24T13:28:33.128Z,16.6
2018-05-24T13:28:44.242Z,16.6
2018-05-24T13:29:44.383Z,16.7
2018-05-24T13:30:44.698Z,16.7
2018-05-24T13:31:44.321Z,16.8
2018-05-24T13:32:44.309Z,16.8
2018-05-24T13:33:49.471Z,16.8
2018-05-24T13:34:56.773Z,16.9
2018-05-24T13:36:44.561Z,16.9
2018-05-24T13:37:44.402Z,16.9
2018-05-24T13:38:44.345Z,16.9
2018-05-24T13:39:45.747Z,17.1
2018-05-24T13:40:44.495Z,17.1
2018-05-24T13:41:44.473Z,17.1
2018-05-24T13:42:44.416Z,17.1
2018-05-24T13:43:44.525Z,17.1
2018-05-24T13:44:48.812Z,17.0
2018-05-24T13:45:45.373Z,17.0
2018-05-24T13:46:44.165Z,17.2
2018-05-24T13:47:44.595Z,17.2
2018-05-24T13:48:44.210Z,17.2
2018-05-24T13:49:45.047Z,17.2
2018-05-24T13:50:44.533Z,17.2
2018-05-24T13:51:44.387Z,17.1
2018-05-24T13:52:45.035Z,17.1
2018-05-24T13:53:44.406Z,17.1
2018-05-24T13:54:44.723Z,17.1
2018-05-24T13:55:45.193Z,17.1
2018-05-24T13:56:44.430Z,17.1
2018-05-24T13:57:44.305Z,17.1
2018-05-24T13:58:44.270Z,17.1
2018-05-24T14:01:25.908Z,17.1
2018-05-24T14:01:39.393Z,17.1
2018-05-24T14:02:40.044Z,17.2
2018-05-24T14:03:40.150Z,17.2
2018-05-24T14:04:39.964Z,17.3
2018-05-24T14:05:40.820Z,17.3
2018-05-24T14:07:40.314Z,17.5
2018-05-24T14:08:40.930Z,17.5
2018-05-24T14:09:40.263Z,17.7
2018-05-24T14:10:41.687Z,17.7
2018-05-24T14:11:40.038Z,17.7
2018-05-24T14:12:39.920Z,17.6
2018-05-24T14:13:40.729Z,17.6
2018-05-24T14:14:40.065Z,17.7
2018-05-24T14:15:39.633Z,17.7
2018-05-24T14:17:26.742Z,17.7
2018-05-24T14:18:51.853Z,17.7
2018-05-24T14:19:56.869Z,18.0
2018-05-24T14:21:04.379Z,18.0
2018-05-24T14:21:53.186Z,18.0
2018-05-24T14:22:50.460Z,18.2
2018-05-24T14:23:50.011Z,18.2
2018-05-24T14:24:59.050Z,18.2
2018-05-24T14:25:50.530Z,18.3
2018-05-24T14:26:41.745Z,18.3
2018-05-24T14:28:43.060Z,18.1
2018-05-24T14:30:41.929Z,18.2
2018-05-24T14:31:45.449Z,18.2
2018-05-24T14:32:42.904Z,18.3
2018-05-24T14:33:42.086Z,18.3
2018-05-24T14:34:52.122Z,18.3
2018-05-24T14:37:54.992Z,18.4
2018-05-24T14:39:03.762Z,18.4
2018-05-24T14:40:22.818Z,18.4
2018-05-24T14:41:01.261Z,18.2
2018-05-24T14:43:08.437Z,18.6
2018-05-24T14:44:10.817Z,18.6
2018-05-24T14:45:18.653Z,18.6
2018-05-24T14:46:40.377Z,18.7
2018-05-24T14:48:06.549Z,19.1
2018-05-24T14:49:06.821Z,19.1
2018-05-24T14:50:05.843Z,19.1
2018-05-24T14:50:53.810Z,19.1
2018-05-24T14:51:53.616Z,19.1
2018-05-24T14:52:54.148Z,19.2
2018-05-24T14:53:53.532Z,19.2
2018-05-24T14:54:53.570Z,19.2
2018-05-24T14:55:54.161Z,19.1
2018-05-24T14:56:54.719Z,19.1
2018-05-24T14:57:53.544Z,19.1
2018-05-24T14:58:54.484Z,19.1
2018-05-24T14:59:59.677Z,19.1
2018-05-24T15:01:53.777Z,18.8
2018-05-24T15:02:53.427Z,18.6
2018-05-24T15:03:53.680Z,18.6
2018-05-24T15:04:53.490Z,18.6
2018-05-24T15:05:53.635Z,18.8